Webcam

2020/09/26 22:50 EBBR 262250Z 32005KT 280V350 6000 RA FEW003 SCT006 BKN009 12/11 Q1001 TEMPO 4000 RA

Webcam

--- Refresh now ---